sensor_id;sensor_type;location;lat;lon;timestamp;temperature;humidity
8463;DHT22;4268;52.506;13.462;2023-04-24T00:00:37;11.70;99.90
8463;DHT22;4268;52.506;13.462;2023-04-24T00:03:06;11.80;99.90
8463;DHT22;4268;52.506;13.462;2023-04-24T00:05:32;11.70;99.90
8463;DHT22;4268;52.506;13.462;2023-04-24T00:07:58;11.70;99.90
8463;DHT22;4268;52.506;13.462;2023-04-24T00:10:23;11.70;99.90
8463;DHT22;4268;52.506;13.462;2023-04-24T00:12:49;11.70;99.90
8463;DHT22;4268;52.506;13.462;2023-04-24T00:15:14;11.70;99.90
8463;DHT22;4268;52.506;13.462;2023-04-24T00:17:40;11.70;99.90
8463;DHT22;4268;52.506;13.462;2023-04-24T00:20:06;11.60;99.90
8463;DHT22;4268;52.506;13.462;2023-04-24T00:22:32;11.70;99.90
8463;DHT22;4268;52.506;13.462;2023-04-24T00:24:58;11.70;99.90
8463;DHT22;4268;52.506;13.462;2023-04-24T00:27:23;11.60;99.90
8463;DHT22;4268;52.506;13.462;2023-04-24T00:29:49;11.60;99.90
8463;DHT22;4268;52.506;13.462;2023-04-24T00:32:15;11.60;99.90
8463;DHT22;4268;52.506;13.462;2023-04-24T00:34:41;11.60;99.90
8463;DHT22;4268;52.506;13.462;2023-04-24T00:37:06;11.60;99.90
8463;DHT22;4268;52.506;13.462;2023-04-24T00:39:32;11.60;99.90
8463;DHT22;4268;52.506;13.462;2023-04-24T00:41:58;11.50;99.90
8463;DHT22;4268;52.506;13.462;2023-04-24T00:44:24;11.50;99.90
8463;DHT22;4268;52.506;13.462;2023-04-24T00:46:49;11.40;99.90
8463;DHT22;4268;52.506;13.462;2023-04-24T00:49:22;11.50;99.90
8463;DHT22;4268;52.506;13.462;2023-04-24T00:51:49;11.50;99.90
8463;DHT22;4268;52.506;13.462;2023-04-24T00:54:17;11.40;99.90
8463;DHT22;4268;52.506;13.462;2023-04-24T00:56:43;11.40;99.90
8463;DHT22;4268;52.506;13.462;2023-04-24T00:59:09;11.40;99.90
8463;DHT22;4268;52.506;13.462;2023-04-24T01:01:36;11.40;99.90
8463;DHT22;4268;52.506;13.462;2023-04-24T01:04:01;11.40;99.90
8463;DHT22;4268;52.506;13.462;2023-04-24T01:06:28;11.40;99.90
8463;DHT22;4268;52.506;13.462;2023-04-24T01:08:54;11.40;99.90
8463;DHT22;4268;52.506;13.462;2023-04-24T01:11:21;11.30;99.90
8463;DHT22;4268;52.506;13.462;2023-04-24T01:13:47;11.30;99.90
8463;DHT22;4268;52.506;13.462;2023-04-24T01:16:14;11.30;99.90
8463;DHT22;4268;52.506;13.462;2023-04-24T01:18:40;11.30;99.90
8463;DHT22;4268;52.506;13.462;2023-04-24T01:21:08;11.30;99.90
8463;DHT22;4268;52.506;13.462;2023-04-24T01:23:34;11.30;99.90
8463;DHT22;4268;52.506;13.462;2023-04-24T01:26:00;11.30;99.90
8463;DHT22;4268;52.506;13.462;2023-04-24T01:28:26;11.30;99.90
8463;DHT22;4268;52.506;13.462;2023-04-24T01:30:52;11.30;99.90
8463;DHT22;4268;52.506;13.462;2023-04-24T01:33:18;11.30;99.90
8463;DHT22;4268;52.506;13.462;2023-04-24T01:35:43;11.30;99.90
8463;DHT22;4268;52.506;13.462;2023-04-24T01:38:09;11.30;99.90
8463;DHT22;4268;52.506;13.462;2023-04-24T01:40:34;11.20;99.90
8463;DHT22;4268;52.506;13.462;2023-04-24T01:43:00;11.20;99.90
8463;DHT22;4268;52.506;13.462;2023-04-24T01:45:26;11.30;99.90
8463;DHT22;4268;52.506;13.462;2023-04-24T01:47:51;11.20;99.90
8463;DHT22;4268;52.506;13.462;2023-04-24T01:50:18;11.10;99.90
8463;DHT22;4268;52.506;13.462;2023-04-24T01:52:43;11.10;99.90
8463;DHT22;4268;52.506;13.462;2023-04-24T01:55:09;11.10;99.90
8463;DHT22;4268;52.506;13.462;2023-04-24T01:57:35;11.60;99.90
8463;DHT22;4268;52.506;13.462;2023-04-24T02:00:01;11.10;99.90
8463;DHT22;4268;52.506;13.462;2023-04-24T02:02:29;11.20;99.90
8463;DHT22;4268;52.506;13.462;2023-04-24T02:04:55;11.10;99.90
8463;DHT22;4268;52.506;13.462;2023-04-24T02:07:20;11.10;99.90
8463;DHT22;4268;52.506;13.462;2023-04-24T02:09:46;11.10;99.90
8463;DHT22;4268;52.506;13.462;2023-04-24T02:12:11;11.10;99.90
8463;DHT22;4268;52.506;13.462;2023-04-24T02:14:37;11.20;99.90
8463;DHT22;4268;52.506;13.462;2023-04-24T02:17:03;11.20;99.90
8463;DHT22;4268;52.506;13.462;2023-04-24T02:19:28;11.20;99.90
8463;DHT22;4268;52.506;13.462;2023-04-24T02:21:54;11.20;99.90
8463;DHT22;4268;52.506;13.462;2023-04-24T02:24:19;11.30;99.90
8463;DHT22;4268;52.506;13.462;2023-04-24T02:26:45;11.30;99.90
8463;DHT22;4268;52.506;13.462;2023-04-24T02:29:10;9.90;99.90
8463;DHT22;4268;52.506;13.462;2023-04-24T02:31:36;11.30;99.90
8463;DHT22;4268;52.506;13.462;2023-04-24T02:34:02;11.30;99.90
8463;DHT22;4268;52.506;13.462;2023-04-24T02:36:27;11.50;99.90
8463;DHT22;4268;52.506;13.462;2023-04-24T02:38:53;11.30;99.90
8463;DHT22;4268;52.506;13.462;2023-04-24T02:41:18;11.20;99.90
8463;DHT22;4268;52.506;13.462;2023-04-24T02:43:44;11.30;99.90
8463;DHT22;4268;52.506;13.462;2023-04-24T02:46:10;11.30;99.90
8463;DHT22;4268;52.506;13.462;2023-04-24T02:48:36;11.30;99.90
8463;DHT22;4268;52.506;13.462;2023-04-24T02:51:01;11.30;99.90
8463;DHT22;4268;52.506;13.462;2023-04-24T02:53:27;11.40;99.90
8463;DHT22;4268;52.506;13.462;2023-04-24T02:55:52;11.40;99.90
8463;DHT22;4268;52.506;13.462;2023-04-24T02:58:18;11.40;99.90
8463;DHT22;4268;52.506;13.462;2023-04-24T03:00:45;11.40;99.90
8463;DHT22;4268;52.506;13.462;2023-04-24T03:03:11;11.40;99.90
8463;DHT22;4268;52.506;13.462;2023-04-24T03:05:36;11.50;99.90
8463;DHT22;4268;52.506;13.462;2023-04-24T03:08:02;11.90;99.90
8463;DHT22;4268;52.506;13.462;2023-04-24T03:10:27;11.60;99.90
8463;DHT22;4268;52.506;13.462;2023-04-24T03:12:52;10.90;99.90
8463;DHT22;4268;52.506;13.462;2023-04-24T03:15:20;11.50;99.90
8463;DHT22;4268;52.506;13.462;2023-04-24T03:17:45;12.40;99.90
8463;DHT22;4268;52.506;13.462;2023-04-24T03:20:11;11.60;99.90
8463;DHT22;4268;52.506;13.462;2023-04-24T03:22:36;11.60;99.90
8463;DHT22;4268;52.506;13.462;2023-04-24T03:25:02;11.60;99.90
8463;DHT22;4268;52.506;13.462;2023-04-24T03:27:28;11.70;99.90
8463;DHT22;4268;52.506;13.462;2023-04-24T03:29:53;11.70;99.90
8463;DHT22;4268;52.506;13.462;2023-04-24T03:32:22;11.70;99.90
8463;DHT22;4268;52.506;13.462;2023-04-24T03:34:48;11.70;99.90
8463;DHT22;4268;52.506;13.462;2023-04-24T03:37:14;11.80;99.90
8463;DHT22;4268;52.506;13.462;2023-04-24T03:39:40;11.20;99.90
8463;DHT22;4268;52.506;13.462;2023-04-24T03:42:05;11.70;99.90
8463;DHT22;4268;52.506;13.462;2023-04-24T03:44:31;11.90;99.90
8463;DHT22;4268;52.506;13.462;2023-04-24T03:46:58;11.90;99.90
8463;DHT22;4268;52.506;13.462;2023-04-24T03:49:23;11.90;99.90
8463;DHT22;4268;52.506;13.462;2023-04-24T03:51:49;11.90;99.90
8463;DHT22;4268;52.506;13.462;2023-04-24T03:54:14;11.90;99.90
8463;DHT22;4268;52.506;13.462;2023-04-24T03:56:40;12.00;99.90
8463;DHT22;4268;52.506;13.462;2023-04-24T03:59:05;12.00;99.90
8463;DHT22;4268;52.506;13.462;2023-04-24T04:01:31;12.00;99.90
8463;DHT22;4268;52.506;13.462;2023-04-24T04:03:56;12.00;99.90
8463;DHT22;4268;52.506;13.462;2023-04-24T04:06:22;12.10;99.90
8463;DHT22;4268;52.506;13.462;2023-04-24T04:08:47;12.10;99.90
8463;DHT22;4268;52.506;13.462;2023-04-24T04:11:13;12.10;99.90
8463;DHT22;4268;52.506;13.462;2023-04-24T04:13:38;12.20;99.90
8463;DHT22;4268;52.506;13.462;2023-04-24T04:16:04;12.10;99.90
8463;DHT22;4268;52.506;13.462;2023-04-24T04:18:29;12.20;99.90
8463;DHT22;4268;52.506;13.462;2023-04-24T04:20:55;12.20;99.90
8463;DHT22;4268;52.506;13.462;2023-04-24T04:23:22;12.20;99.90
8463;DHT22;4268;52.506;13.462;2023-04-24T04:25:47;12.20;99.90
8463;DHT22;4268;52.506;13.462;2023-04-24T04:28:13;12.30;99.90
8463;DHT22;4268;52.506;13.462;2023-04-24T04:30:38;12.30;99.90
8463;DHT22;4268;52.506;13.462;2023-04-24T04:33:05;12.20;99.90
8463;DHT22;4268;52.506;13.462;2023-04-24T04:35:30;12.30;99.90
8463;DHT22;4268;52.506;13.462;2023-04-24T04:37:56;12.30;99.90
8463;DHT22;4268;52.506;13.462;2023-04-24T04:40:24;12.30;99.90
8463;DHT22;4268;52.506;13.462;2023-04-24T04:42:50;12.30;99.90
8463;DHT22;4268;52.506;13.462;2023-04-24T04:45:18;12.30;99.90
8463;DHT22;4268;52.506;13.462;2023-04-24T04:47:43;11.90;99.90
8463;DHT22;4268;52.506;13.462;2023-04-24T04:50:12;12.30;99.90
8463;DHT22;4268;52.506;13.462;2023-04-24T04:52:38;12.20;99.90
8463;DHT22;4268;52.506;13.462;2023-04-24T04:55:04;12.40;99.90
8463;DHT22;4268;52.506;13.462;2023-04-24T04:57:30;12.40;99.90
8463;DHT22;4268;52.506;13.462;2023-04-24T04:59:56;12.60;99.90
8463;DHT22;4268;52.506;13.462;2023-04-24T05:02:21;12.40;99.90
8463;DHT22;4268;52.506;13.462;2023-04-24T05:04:47;12.50;99.90
8463;DHT22;4268;52.506;13.462;2023-04-24T05:07:12;12.50;99.90
8463;DHT22;4268;52.506;13.462;2023-04-24T05:09:38;12.80;99.90
8463;DHT22;4268;52.506;13.462;2023-04-24T05:12:04;12.50;99.90
8463;DHT22;4268;52.506;13.462;2023-04-24T05:14:29;12.60;99.90
8463;DHT22;4268;52.506;13.462;2023-04-24T05:16:54;12.60;99.90
8463;DHT22;4268;52.506;13.462;2023-04-24T05:19:20;12.70;99.90
8463;DHT22;4268;52.506;13.462;2023-04-24T05:21:45;12.80;99.90
8463;DHT22;4268;52.506;13.462;2023-04-24T05:24:11;12.80;99.90
8463;DHT22;4268;52.506;13.462;2023-04-24T05:26:37;12.90;99.90
8463;DHT22;4268;52.506;13.462;2023-04-24T05:29:03;12.90;99.90
8463;DHT22;4268;52.506;13.462;2023-04-24T05:31:28;13.00;99.90
8463;DHT22;4268;52.506;13.462;2023-04-24T05:33:54;13.10;99.90
8463;DHT22;4268;52.506;13.462;2023-04-24T05:36:19;13.50;99.90
8463;DHT22;4268;52.506;13.462;2023-04-24T05:38:45;13.30;99.90
8463;DHT22;4268;52.506;13.462;2023-04-24T05:41:10;13.30;99.90
8463;DHT22;4268;52.506;13.462;2023-04-24T05:43:36;13.40;99.90
8463;DHT22;4268;52.506;13.462;2023-04-24T05:46:01;13.50;99.90
8463;DHT22;4268;52.506;13.462;2023-04-24T05:48:27;13.30;99.90
8463;DHT22;4268;52.506;13.462;2023-04-24T05:50:53;13.60;99.90
8463;DHT22;4268;52.506;13.462;2023-04-24T05:53:18;13.70;99.90
8463;DHT22;4268;52.506;13.462;2023-04-24T05:55:44;13.70;99.90
8463;DHT22;4268;52.506;13.462;2023-04-24T05:58:11;13.80;99.90
8463;DHT22;4268;52.506;13.462;2023-04-24T06:00:36;13.80;99.90
8463;DHT22;4268;52.506;13.462;2023-04-24T06:03:03;13.80;99.90
8463;DHT22;4268;52.506;13.462;2023-04-24T06:05:29;13.90;99.90
8463;DHT22;4268;52.506;13.462;2023-04-24T06:07:55;13.00;99.90
8463;DHT22;4268;52.506;13.462;2023-04-24T06:10:20;14.10;99.90
8463;DHT22;4268;52.506;13.462;2023-04-24T06:12:46;15.70;99.90
8463;DHT22;4268;52.506;13.462;2023-04-24T06:15:11;14.30;99.90
8463;DHT22;4268;52.506;13.462;2023-04-24T06:17:38;14.40;99.90
8463;DHT22;4268;52.506;13.462;2023-04-24T06:20:04;14.90;99.90
8463;DHT22;4268;52.506;13.462;2023-04-24T06:22:30;15.60;99.90
8463;DHT22;4268;52.506;13.462;2023-04-24T06:24:56;16.20;99.90
8463;DHT22;4268;52.506;13.462;2023-04-24T06:27:21;17.00;99.90
8463;DHT22;4268;52.506;13.462;2023-04-24T06:29:47;17.70;99.90
8463;DHT22;4268;52.506;13.462;2023-04-24T06:32:20;17.90;99.90
8463;DHT22;4268;52.506;13.462;2023-04-24T06:34:45;17.60;99.90
8463;DHT22;4268;52.506;13.462;2023-04-24T06:37:11;17.30;99.90
8463;DHT22;4268;52.506;13.462;2023-04-24T06:39:36;17.30;99.90
8463;DHT22;4268;52.506;13.462;2023-04-24T06:42:02;17.80;99.90
8463;DHT22;4268;52.506;13.462;2023-04-24T06:44:28;19.50;99.90
8463;DHT22;4268;52.506;13.462;2023-04-24T06:46:54;23.00;99.90
8463;DHT22;4268;52.506;13.462;2023-04-24T06:49:19;22.30;96.40
8463;DHT22;4268;52.506;13.462;2023-04-24T06:51:45;22.30;94.40
8463;DHT22;4268;52.506;13.462;2023-04-24T06:54:10;22.80;93.50
8463;DHT22;4268;52.506;13.462;2023-04-24T06:56:36;23.20;92.10
8463;DHT22;4268;52.506;13.462;2023-04-24T06:59:02;23.70;90.80
8463;DHT22;4268;52.506;13.462;2023-04-24T07:01:29;24.50;90.10
8463;DHT22;4268;52.506;13.462;2023-04-24T07:03:54;26.20;87.30
8463;DHT22;4268;52.506;13.462;2023-04-24T07:06:20;25.30;81.80
8463;DHT22;4268;52.506;13.462;2023-04-24T07:08:48;26.20;78.40
8463;DHT22;4268;52.506;13.462;2023-04-24T07:11:13;26.80;77.30
8463;DHT22;4268;52.506;13.462;2023-04-24T07:13:41;27.30;75.90
8463;DHT22;4268;52.506;13.462;2023-04-24T07:16:08;26.30;74.50
8463;DHT22;4268;52.506;13.462;2023-04-24T07:18:34;26.10;73.80
8463;DHT22;4268;52.506;13.462;2023-04-24T07:20:59;25.40;74.90
8463;DHT22;4268;52.506;13.462;2023-04-24T07:23:25;24.20;77.40
8463;DHT22;4268;52.506;13.462;2023-04-24T07:25:50;24.10;78.50
8463;DHT22;4268;52.506;13.462;2023-04-24T07:28:16;24.00;79.80
8463;DHT22;4268;52.506;13.462;2023-04-24T07:30:43;23.60;78.50
8463;DHT22;4268;52.506;13.462;2023-04-24T07:33:08;23.70;79.20
8463;DHT22;4268;52.506;13.462;2023-04-24T07:35:38;22.50;79.70
8463;DHT22;4268;52.506;13.462;2023-04-24T07:38:04;22.00;80.00
8463;DHT22;4268;52.506;13.462;2023-04-24T07:40:30;21.20;81.50
8463;DHT22;4268;52.506;13.462;2023-04-24T07:42:55;20.50;81.20
8463;DHT22;4268;52.506;13.462;2023-04-24T07:45:21;18.70;81.40
8463;DHT22;4268;52.506;13.462;2023-04-24T07:47:50;19.40;84.50
8463;DHT22;4268;52.506;13.462;2023-04-24T07:50:15;19.30;85.80
8463;DHT22;4268;52.506;13.462;2023-04-24T07:52:41;19.60;86.80
8463;DHT22;4268;52.506;13.462;2023-04-24T07:55:07;20.10;87.20
8463;DHT22;4268;52.506;13.462;2023-04-24T07:57:32;20.30;84.70
8463;DHT22;4268;52.506;13.462;2023-04-24T07:59:58;20.40;85.20
8463;DHT22;4268;52.506;13.462;2023-04-24T08:02:23;20.50;84.20
8463;DHT22;4268;52.506;13.462;2023-04-24T08:04:52;20.60;82.70
8463;DHT22;4268;52.506;13.462;2023-04-24T08:07:19;20.80;81.50
8463;DHT22;4268;52.506;13.462;2023-04-24T08:09:44;20.90;81.10
8463;DHT22;4268;52.506;13.462;2023-04-24T08:12:10;21.00;80.80
8463;DHT22;4268;52.506;13.462;2023-04-24T08:14:36;21.00;80.10
8463;DHT22;4268;52.506;13.462;2023-04-24T08:17:03;20.80;81.20
8463;DHT22;4268;52.506;13.462;2023-04-24T08:19:29;20.60;80.80
8463;DHT22;4268;52.506;13.462;2023-04-24T08:21:54;20.40;79.60
8463;DHT22;4268;52.506;13.462;2023-04-24T08:24:20;20.30;80.50
8463;DHT22;4268;52.506;13.462;2023-04-24T08:26:45;19.50;80.30
8463;DHT22;4268;52.506;13.462;2023-04-24T08:29:11;20.20;82.00
8463;DHT22;4268;52.506;13.462;2023-04-24T08:31:36;19.10;85.60
8463;DHT22;4268;52.506;13.462;2023-04-24T08:34:02;18.40;89.50
8463;DHT22;4268;52.506;13.462;2023-04-24T08:36:28;18.40;90.50
8463;DHT22;4268;52.506;13.462;2023-04-24T08:38:53;18.40;90.50
8463;DHT22;4268;52.506;13.462;2023-04-24T08:41:19;18.20;90.60
8463;DHT22;4268;52.506;13.462;2023-04-24T08:43:47;18.20;90.60
8463;DHT22;4268;52.506;13.462;2023-04-24T08:46:15;18.20;90.50
8463;DHT22;4268;52.506;13.462;2023-04-24T08:48:42;18.30;90.50
8463;DHT22;4268;52.506;13.462;2023-04-24T08:51:08;18.40;90.90
8463;DHT22;4268;52.506;13.462;2023-04-24T08:53:35;18.70;90.80
8463;DHT22;4268;52.506;13.462;2023-04-24T08:56:01;18.90;90.20
8463;DHT22;4268;52.506;13.462;2023-04-24T08:58:27;19.00;89.60
8463;DHT22;4268;52.506;13.462;2023-04-24T09:00:56;19.20;88.60
8463;DHT22;4268;52.506;13.462;2023-04-24T09:03:22;19.30;87.70
8463;DHT22;4268;52.506;13.462;2023-04-24T09:05:49;19.30;87.40
8463;DHT22;4268;52.506;13.462;2023-04-24T09:08:17;19.20;86.30
8463;DHT22;4268;52.506;13.462;2023-04-24T09:10:43;18.60;86.60
8463;DHT22;4268;52.506;13.462;2023-04-24T09:13:08;18.50;87.10
8463;DHT22;4268;52.506;13.462;2023-04-24T09:15:39;18.80;87.60
8463;DHT22;4268;52.506;13.462;2023-04-24T09:18:05;19.00;87.70
8463;DHT22;4268;52.506;13.462;2023-04-24T09:20:31;19.10;87.10
8463;DHT22;4268;52.506;13.462;2023-04-24T09:22:57;18.40;87.90
8463;DHT22;4268;52.506;13.462;2023-04-24T09:25:31;18.00;90.00
8463;DHT22;4268;52.506;13.462;2023-04-24T09:28:01;18.10;90.30
8463;DHT22;4268;52.506;13.462;2023-04-24T09:30:28;18.00;90.00
8463;DHT22;4268;52.506;13.462;2023-04-24T09:33:10;17.80;90.00
8463;DHT22;4268;52.506;13.462;2023-04-24T09:35:36;17.70;90.30
8463;DHT22;4268;52.506;13.462;2023-04-24T09:38:01;17.90;90.50
8463;DHT22;4268;52.506;13.462;2023-04-24T09:40:27;18.10;90.50
8463;DHT22;4268;52.506;13.462;2023-04-24T09:42:54;18.20;90.50
8463;DHT22;4268;52.506;13.462;2023-04-24T09:45:20;18.20;90.70
8463;DHT22;4268;52.506;13.462;2023-04-24T09:47:46;18.20;90.90
8463;DHT22;4268;52.506;13.462;2023-04-24T09:50:16;18.10;91.00
8463;DHT22;4268;52.506;13.462;2023-04-24T09:52:44;18.20;91.10
8463;DHT22;4268;52.506;13.462;2023-04-24T09:55:20;18.00;91.10
8463;DHT22;4268;52.506;13.462;2023-04-24T09:57:50;17.20;92.50
8463;DHT22;4268;52.506;13.462;2023-04-24T10:00:25;17.20;93.20
8463;DHT22;4268;52.506;13.462;2023-04-24T10:03:01;17.40;92.90
8463;DHT22;4268;52.506;13.462;2023-04-24T10:05:29;17.40;93.00
8463;DHT22;4268;52.506;13.462;2023-04-24T10:08:01;17.80;92.60
8463;DHT22;4268;52.506;13.462;2023-04-24T10:10:29;18.10;91.60
8463;DHT22;4268;52.506;13.462;2023-04-24T10:12:55;18.40;91.00
8463;DHT22;4268;52.506;13.462;2023-04-24T10:15:21;18.50;90.90
8463;DHT22;4268;52.506;13.462;2023-04-24T10:17:51;18.70;90.90
8463;DHT22;4268;52.506;13.462;2023-04-24T10:20:24;18.30;90.80
8463;DHT22;4268;52.506;13.462;2023-04-24T10:22:51;18.00;91.20
8463;DHT22;4268;52.506;13.462;2023-04-24T10:25:22;17.50;91.40
8463;DHT22;4268;52.506;13.462;2023-04-24T10:27:49;18.40;91.70
8463;DHT22;4268;52.506;13.462;2023-04-24T10:30:15;18.60;91.20
8463;DHT22;4268;52.506;13.462;2023-04-24T10:32:41;18.80;91.00
8463;DHT22;4268;52.506;13.462;2023-04-24T10:35:11;18.90;90.10
8463;DHT22;4268;52.506;13.462;2023-04-24T10:40:27;18.60;90.40
8463;DHT22;4268;52.506;13.462;2023-04-24T10:42:55;18.70;90.60
8463;DHT22;4268;52.506;13.462;2023-04-24T10:45:23;18.90;90.80
8463;DHT22;4268;52.506;13.462;2023-04-24T10:47:59;18.50;89.90
8463;DHT22;4268;52.506;13.462;2023-04-24T10:50:27;18.20;90.30
8463;DHT22;4268;52.506;13.462;2023-04-24T10:53:06;17.80;90.30
8463;DHT22;4268;52.506;13.462;2023-04-24T10:55:43;17.90;90.80
8463;DHT22;4268;52.506;13.462;2023-04-24T10:58:09;17.70;90.60
8463;DHT22;4268;52.506;13.462;2023-04-24T11:00:39;17.70;90.50
8463;DHT22;4268;52.506;13.462;2023-04-24T11:03:07;17.20;91.30
8463;DHT22;4268;52.506;13.462;2023-04-24T11:05:55;17.20;91.70
8463;DHT22;4268;52.506;13.462;2023-04-24T11:08:32;17.40;92.00
8463;DHT22;4268;52.506;13.462;2023-04-24T11:11:09;17.60;91.80
8463;DHT22;4268;52.506;13.462;2023-04-24T11:19:26;18.50;91.40
8463;DHT22;4268;52.506;13.462;2023-04-24T11:22:14;18.90;90.50
8463;DHT22;4268;52.506;13.462;2023-04-24T11:27:14;18.70;89.80
8463;DHT22;4268;52.506;13.462;2023-04-24T11:29:46;18.60;90.40
8463;DHT22;4268;52.506;13.462;2023-04-24T11:32:39;18.60;90.80
8463;DHT22;4268;52.506;13.462;2023-04-24T11:35:19;18.60;90.90
8463;DHT22;4268;52.506;13.462;2023-04-24T11:37:48;18.40;90.80
8463;DHT22;4268;52.506;13.462;2023-04-24T11:40:15;18.20;90.90
8463;DHT22;4268;52.506;13.462;2023-04-24T11:42:44;17.20;96.40
8463;DHT22;4268;52.506;13.462;2023-04-24T11:45:29;16.00;99.90
8463;DHT22;4268;52.506;13.462;2023-04-24T11:47:55;16.00;99.90
8463;DHT22;4268;52.506;13.462;2023-04-24T11:50:23;15.60;99.90
8463;DHT22;4268;52.506;13.462;2023-04-24T11:52:50;15.80;99.90
8463;DHT22;4268;52.506;13.462;2023-04-24T11:57:44;16.70;99.90
8463;DHT22;4268;52.506;13.462;2023-04-24T12:00:16;17.00;99.90
8463;DHT22;4268;52.506;13.462;2023-04-24T12:02:42;17.30;99.90
8463;DHT22;4268;52.506;13.462;2023-04-24T12:05:08;17.60;99.90
8463;DHT22;4268;52.506;13.462;2023-04-24T12:07:41;17.50;99.90
8463;DHT22;4268;52.506;13.462;2023-04-24T12:10:08;17.60;99.90
8463;DHT22;4268;52.506;13.462;2023-04-24T12:12:34;17.90;99.90
8463;DHT22;4268;52.506;13.462;2023-04-24T12:15:00;18.10;99.90
8463;DHT22;4268;52.506;13.462;2023-04-24T12:17:28;18.30;99.90
8463;DHT22;4268;52.506;13.462;2023-04-24T12:20:01;18.50;99.90
8463;DHT22;4268;52.506;13.462;2023-04-24T12:22:28;18.30;99.30
8463;DHT22;4268;52.506;13.462;2023-04-24T12:25:01;17.90;99.10
8463;DHT22;4268;52.506;13.462;2023-04-24T12:27:30;18.10;99.00
8463;DHT22;4268;52.506;13.462;2023-04-24T12:29:56;18.00;98.30
8463;DHT22;4268;52.506;13.462;2023-04-24T12:32:23;18.30;98.50
8463;DHT22;4268;52.506;13.462;2023-04-24T12:34:49;18.10;97.90
8463;DHT22;4268;52.506;13.462;2023-04-24T12:37:16;18.30;97.50
8463;DHT22;4268;52.506;13.462;2023-04-24T12:40:02;18.40;96.70
8463;DHT22;4268;52.506;13.462;2023-04-24T12:42:29;18.60;96.30
8463;DHT22;4268;52.506;13.462;2023-04-24T12:45:01;18.70;94.60
8463;DHT22;4268;52.506;13.462;2023-04-24T12:47:28;18.80;93.80
8463;DHT22;4268;52.506;13.462;2023-04-24T12:49:54;18.80;93.50
8463;DHT22;4268;52.506;13.462;2023-04-24T12:52:21;19.00;93.10
8463;DHT22;4268;52.506;13.462;2023-04-24T12:54:47;18.40;85.10
8463;DHT22;4268;52.506;13.462;2023-04-24T12:57:12;18.00;85.20
8463;DHT22;4268;52.506;13.462;2023-04-24T12:59:38;18.00;83.80
8463;DHT22;4268;52.506;13.462;2023-04-24T13:02:04;18.00;83.10
8463;DHT22;4268;52.506;13.462;2023-04-24T13:04:30;18.20;84.50
8463;DHT22;4268;52.506;13.462;2023-04-24T13:06:56;18.60;86.20
8463;DHT22;4268;52.506;13.462;2023-04-24T13:09:21;18.80;80.60
8463;DHT22;4268;52.506;13.462;2023-04-24T13:11:47;18.90;80.10
8463;DHT22;4268;52.506;13.462;2023-04-24T13:14:12;19.10;78.50
8463;DHT22;4268;52.506;13.462;2023-04-24T13:16:38;19.20;76.70
8463;DHT22;4268;52.506;13.462;2023-04-24T13:19:03;19.10;74.70
8463;DHT22;4268;52.506;13.462;2023-04-24T13:21:29;19.00;72.60
8463;DHT22;4268;52.506;13.462;2023-04-24T13:23:55;19.00;73.00
8463;DHT22;4268;52.506;13.462;2023-04-24T13:26:21;19.20;73.90
8463;DHT22;4268;52.506;13.462;2023-04-24T13:28:46;19.40;71.40
8463;DHT22;4268;52.506;13.462;2023-04-24T13:31:12;19.50;70.30
8463;DHT22;4268;52.506;13.462;2023-04-24T13:33:39;19.60;69.00
8463;DHT22;4268;52.506;13.462;2023-04-24T13:36:05;19.30;68.70
8463;DHT22;4268;52.506;13.462;2023-04-24T13:38:30;19.20;68.90
8463;DHT22;4268;52.506;13.462;2023-04-24T13:40:56;19.10;68.50
8463;DHT22;4268;52.506;13.462;2023-04-24T13:43:22;18.90;68.30
8463;DHT22;4268;52.506;13.462;2023-04-24T13:45:47;18.80;68.20
8463;DHT22;4268;52.506;13.462;2023-04-24T13:48:13;18.80;67.40
8463;DHT22;4268;52.506;13.462;2023-04-24T13:50:41;18.80;66.40
8463;DHT22;4268;52.506;13.462;2023-04-24T13:53:07;18.70;67.10
8463;DHT22;4268;52.506;13.462;2023-04-24T13:55:32;18.90;67.50
8463;DHT22;4268;52.506;13.462;2023-04-24T13:57:58;19.10;67.50
8463;DHT22;4268;52.506;13.462;2023-04-24T14:00:23;19.30;67.00
8463;DHT22;4268;52.506;13.462;2023-04-24T14:02:49;19.30;67.30
8463;DHT22;4268;52.506;13.462;2023-04-24T14:05:15;18.90;65.50
8463;DHT22;4268;52.506;13.462;2023-04-24T14:07:41;18.90;66.90
8463;DHT22;4268;52.506;13.462;2023-04-24T14:10:07;19.00;67.50
8463;DHT22;4268;52.506;13.462;2023-04-24T14:12:33;19.10;67.60
8463;DHT22;4268;52.506;13.462;2023-04-24T14:14:59;19.20;67.50
8463;DHT22;4268;52.506;13.462;2023-04-24T14:17:24;19.30;67.50
8463;DHT22;4268;52.506;13.462;2023-04-24T14:19:50;19.20;67.00
8463;DHT22;4268;52.506;13.462;2023-04-24T14:22:21;19.30;68.50
8463;DHT22;4268;52.506;13.462;2023-04-24T14:24:47;19.80;69.70
8463;DHT22;4268;52.506;13.462;2023-04-24T14:27:13;19.00;68.50
8463;DHT22;4268;52.506;13.462;2023-04-24T14:29:38;18.30;67.70
8463;DHT22;4268;52.506;13.462;2023-04-24T14:32:04;18.30;66.40
8463;DHT22;4268;52.506;13.462;2023-04-24T14:34:29;18.20;67.60
8463;DHT22;4268;52.506;13.462;2023-04-24T14:36:55;18.10;68.20
8463;DHT22;4268;52.506;13.462;2023-04-24T14:39:20;18.10;67.50
8463;DHT22;4268;52.506;13.462;2023-04-24T14:41:46;18.20;67.60
8463;DHT22;4268;52.506;13.462;2023-04-24T14:44:11;18.40;65.90
8463;DHT22;4268;52.506;13.462;2023-04-24T14:46:37;18.50;65.30
8463;DHT22;4268;52.506;13.462;2023-04-24T14:49:02;18.40;65.10
8463;DHT22;4268;52.506;13.462;2023-04-24T14:51:28;18.30;65.40
8463;DHT22;4268;52.506;13.462;2023-04-24T14:53:53;18.20;66.80
8463;DHT22;4268;52.506;13.462;2023-04-24T14:56:19;18.30;67.70
8463;DHT22;4268;52.506;13.462;2023-04-24T14:58:45;18.60;68.00
8463;DHT22;4268;52.506;13.462;2023-04-24T15:01:11;18.80;68.20
8463;DHT22;4268;52.506;13.462;2023-04-24T15:03:36;18.90;67.20
8463;DHT22;4268;52.506;13.462;2023-04-24T15:06:01;18.60;66.50
8463;DHT22;4268;52.506;13.462;2023-04-24T15:08:27;18.40;67.10
8463;DHT22;4268;52.506;13.462;2023-04-24T15:10:53;18.40;67.70
8463;DHT22;4268;52.506;13.462;2023-04-24T15:13:19;18.30;67.70
8463;DHT22;4268;52.506;13.462;2023-04-24T15:15:46;18.00;67.40
8463;DHT22;4268;52.506;13.462;2023-04-24T15:18:12;17.90;68.60
8463;DHT22;4268;52.506;13.462;2023-04-24T15:20:38;17.80;69.00
8463;DHT22;4268;52.506;13.462;2023-04-24T15:23:08;17.90;69.20
8463;DHT22;4268;52.506;13.462;2023-04-24T15:25:34;18.00;69.80
8463;DHT22;4268;52.506;13.462;2023-04-24T15:28:00;18.00;69.70
8463;DHT22;4268;52.506;13.462;2023-04-24T15:30:26;18.00;69.30
8463;DHT22;4268;52.506;13.462;2023-04-24T15:32:51;17.90;67.80
8463;DHT22;4268;52.506;13.462;2023-04-24T15:35:17;17.90;68.70
8463;DHT22;4268;52.506;13.462;2023-04-24T15:37:43;18.00;67.90
8463;DHT22;4268;52.506;13.462;2023-04-24T15:40:09;18.00;67.40
8463;DHT22;4268;52.506;13.462;2023-04-24T15:42:36;17.90;67.20
8463;DHT22;4268;52.506;13.462;2023-04-24T15:45:02;17.60;68.10
8463;DHT22;4268;52.506;13.462;2023-04-24T15:47:28;17.50;68.20
8463;DHT22;4268;52.506;13.462;2023-04-24T15:49:54;17.30;69.80
8463;DHT22;4268;52.506;13.462;2023-04-24T15:52:20;17.20;70.10
8463;DHT22;4268;52.506;13.462;2023-04-24T15:54:45;17.10;70.10